sensor_id;sensor_type;location;lat;lon;timestamp;P1;durP1;ratioP1;P2;durP2;ratioP2
57071;SDS011;42956;51.366;11.298;2022-08-19T00:01:43;24.30;;;15.05;;
57071;SDS011;42956;51.366;11.298;2022-08-19T00:04:19;21.15;;;15.32;;
57071;SDS011;42956;51.366;11.298;2022-08-19T00:06:47;18.25;;;14.63;;
57071;SDS011;42956;51.366;11.298;2022-08-19T00:09:16;20.02;;;14.75;;
57071;SDS011;42956;51.366;11.298;2022-08-19T00:11:46;18.67;;;15.30;;
57071;SDS011;42956;51.366;11.298;2022-08-19T00:14:15;17.50;;;15.50;;
57071;SDS011;42956;51.366;11.298;2022-08-19T00:16:43;27.13;;;15.23;;
57071;SDS011;42956;51.366;11.298;2022-08-19T00:19:12;26.23;;;16.13;;
57071;SDS011;42956;51.366;11.298;2022-08-19T00:21:40;19.80;;;15.38;;
57071;SDS011;42956;51.366;11.298;2022-08-19T00:24:09;24.27;;;15.40;;
57071;SDS011;42956;51.366;11.298;2022-08-19T00:26:37;23.55;;;16.80;;
57071;SDS011;42956;51.366;11.298;2022-08-19T00:29:08;27.60;;;16.27;;
57071;SDS011;42956;51.366;11.298;2022-08-19T00:31:36;20.60;;;17.05;;
57071;SDS011;42956;51.366;11.298;2022-08-19T00:34:03;24.85;;;16.38;;
57071;SDS011;42956;51.366;11.298;2022-08-19T00:36:31;27.13;;;17.77;;
57071;SDS011;42956;51.366;11.298;2022-08-19T00:39:00;24.98;;;17.23;;
57071;SDS011;42956;51.366;11.298;2022-08-19T00:41:28;24.33;;;17.17;;
57071;SDS011;42956;51.366;11.298;2022-08-19T00:43:57;26.35;;;15.98;;
57071;SDS011;42956;51.366;11.298;2022-08-19T00:46:26;21.20;;;16.17;;
57071;SDS011;42956;51.366;11.298;2022-08-19T00:48:54;20.88;;;16.85;;
57071;SDS011;42956;51.366;11.298;2022-08-19T00:51:24;19.25;;;15.18;;
57071;SDS011;42956;51.366;11.298;2022-08-19T00:53:53;20.60;;;16.08;;
57071;SDS011;42956;51.366;11.298;2022-08-19T00:56:21;27.40;;;16.63;;
57071;SDS011;42956;51.366;11.298;2022-08-19T00:58:50;20.60;;;16.73;;
57071;SDS011;42956;51.366;11.298;2022-08-19T01:01:17;21.35;;;16.95;;
57071;SDS011;42956;51.366;11.298;2022-08-19T01:03:47;24.60;;;17.63;;
57071;SDS011;42956;51.366;11.298;2022-08-19T01:06:24;20.70;;;17.20;;
57071;SDS011;42956;51.366;11.298;2022-08-19T01:08:53;18.45;;;16.45;;
57071;SDS011;42956;51.366;11.298;2022-08-19T01:11:21;25.38;;;16.77;;
57071;SDS011;42956;51.366;11.298;2022-08-19T01:13:49;21.00;;;16.15;;
57071;SDS011;42956;51.366;11.298;2022-08-19T01:16:18;19.58;;;16.13;;
57071;SDS011;42956;51.366;11.298;2022-08-19T01:18:49;18.73;;;15.75;;
57071;SDS011;42956;51.366;11.298;2022-08-19T01:21:18;19.95;;;15.95;;
57071;SDS011;42956;51.366;11.298;2022-08-19T01:23:50;19.50;;;16.80;;
57071;SDS011;42956;51.366;11.298;2022-08-19T01:26:18;21.30;;;17.52;;
57071;SDS011;42956;51.366;11.298;2022-08-19T01:28:47;20.50;;;17.40;;
57071;SDS011;42956;51.366;11.298;2022-08-19T01:31:18;21.80;;;17.05;;
57071;SDS011;42956;51.366;11.298;2022-08-19T01:33:54;20.33;;;16.52;;
57071;SDS011;42956;51.366;11.298;2022-08-19T01:36:23;22.63;;;18.15;;
57071;SDS011;42956;51.366;11.298;2022-08-19T01:38:53;21.73;;;18.70;;
57071;SDS011;42956;51.366;11.298;2022-08-19T01:41:22;20.40;;;17.80;;
57071;SDS011;42956;51.366;11.298;2022-08-19T01:43:50;19.75;;;17.58;;
57071;SDS011;42956;51.366;11.298;2022-08-19T01:46:38;20.05;;;16.95;;
57071;SDS011;42956;51.366;11.298;2022-08-19T01:49:06;20.17;;;17.58;;
57071;SDS011;42956;51.366;11.298;2022-08-19T01:51:36;18.60;;;16.67;;
57071;SDS011;42956;51.366;11.298;2022-08-19T01:54:07;19.70;;;16.08;;
57071;SDS011;42956;51.366;11.298;2022-08-19T01:56:35;22.55;;;18.10;;
57071;SDS011;42956;51.366;11.298;2022-08-19T01:59:04;20.20;;;18.10;;
57071;SDS011;42956;51.366;11.298;2022-08-19T02:01:34;22.30;;;17.52;;
57071;SDS011;42956;51.366;11.298;2022-08-19T02:04:02;21.30;;;19.05;;
57071;SDS011;42956;51.366;11.298;2022-08-19T02:06:30;24.13;;;20.20;;
57071;SDS011;42956;51.366;11.298;2022-08-19T02:08:59;25.40;;;19.55;;
57071;SDS011;42956;51.366;11.298;2022-08-19T02:11:29;20.38;;;18.20;;
57071;SDS011;42956;51.366;11.298;2022-08-19T02:13:58;21.23;;;18.95;;
57071;SDS011;42956;51.366;11.298;2022-08-19T02:16:26;25.80;;;20.08;;
57071;SDS011;42956;51.366;11.298;2022-08-19T02:18:54;22.88;;;19.70;;
57071;SDS011;42956;51.366;11.298;2022-08-19T02:21:22;25.52;;;19.88;;
57071;SDS011;42956;51.366;11.298;2022-08-19T02:23:50;23.83;;;19.48;;
57071;SDS011;42956;51.366;11.298;2022-08-19T02:26:18;25.00;;;19.63;;
57071;SDS011;42956;51.366;11.298;2022-08-19T02:28:48;25.08;;;20.80;;
57071;SDS011;42956;51.366;11.298;2022-08-19T02:31:17;25.13;;;22.42;;
57071;SDS011;42956;51.366;11.298;2022-08-19T02:33:45;25.73;;;21.52;;
57071;SDS011;42956;51.366;11.298;2022-08-19T02:36:13;26.55;;;21.75;;
57071;SDS011;42956;51.366;11.298;2022-08-19T02:38:46;24.48;;;21.25;;
57071;SDS011;42956;51.366;11.298;2022-08-19T02:41:20;27.23;;;22.55;;
57071;SDS011;42956;51.366;11.298;2022-08-19T02:43:54;25.63;;;22.48;;
57071;SDS011;42956;51.366;11.298;2022-08-19T02:46:42;26.40;;;21.17;;
57071;SDS011;42956;51.366;11.298;2022-08-19T02:49:11;25.88;;;21.95;;
57071;SDS011;42956;51.366;11.298;2022-08-19T02:51:40;24.67;;;21.30;;
57071;SDS011;42956;51.366;11.298;2022-08-19T02:54:09;23.60;;;20.35;;
57071;SDS011;42956;51.366;11.298;2022-08-19T02:56:38;26.58;;;22.38;;
57071;SDS011;42956;51.366;11.298;2022-08-19T02:59:08;23.67;;;21.10;;
57071;SDS011;42956;51.366;11.298;2022-08-19T03:01:37;27.48;;;22.90;;
57071;SDS011;42956;51.366;11.298;2022-08-19T03:04:08;26.48;;;22.95;;
57071;SDS011;42956;51.366;11.298;2022-08-19T03:06:36;29.35;;;24.92;;
57071;SDS011;42956;51.366;11.298;2022-08-19T03:09:04;35.80;;;26.65;;
57071;SDS011;42956;51.366;11.298;2022-08-19T03:11:32;33.38;;;24.45;;
57071;SDS011;42956;51.366;11.298;2022-08-19T03:14:01;30.67;;;27.02;;
57071;SDS011;42956;51.366;11.298;2022-08-19T03:16:31;29.27;;;24.08;;
57071;SDS011;42956;51.366;11.298;2022-08-19T03:18:59;31.67;;;24.38;;
57071;SDS011;42956;51.366;11.298;2022-08-19T03:21:29;28.95;;;24.73;;
57071;SDS011;42956;51.366;11.298;2022-08-19T03:23:57;33.85;;;24.70;;
57071;SDS011;42956;51.366;11.298;2022-08-19T03:26:26;29.38;;;24.58;;
57071;SDS011;42956;51.366;11.298;2022-08-19T03:28:54;38.40;;;26.27;;
57071;SDS011;42956;51.366;11.298;2022-08-19T03:31:24;32.47;;;27.70;;
57071;SDS011;42956;51.366;11.298;2022-08-19T03:34:15;31.88;;;26.10;;
57071;SDS011;42956;51.366;11.298;2022-08-19T03:36:44;32.58;;;26.60;;
57071;SDS011;42956;51.366;11.298;2022-08-19T03:39:12;30.63;;;23.98;;
57071;SDS011;42956;51.366;11.298;2022-08-19T03:41:42;32.97;;;26.48;;
57071;SDS011;42956;51.366;11.298;2022-08-19T03:44:15;30.27;;;24.92;;
57071;SDS011;42956;51.366;11.298;2022-08-19T03:46:45;31.33;;;24.73;;
57071;SDS011;42956;51.366;11.298;2022-08-19T03:49:15;30.58;;;23.30;;
57071;SDS011;42956;51.366;11.298;2022-08-19T03:51:44;29.85;;;25.15;;
57071;SDS011;42956;51.366;11.298;2022-08-19T03:54:13;33.65;;;25.42;;
57071;SDS011;42956;51.366;11.298;2022-08-19T03:56:42;28.85;;;24.88;;
57071;SDS011;42956;51.366;11.298;2022-08-19T03:59:11;28.30;;;23.80;;
57071;SDS011;42956;51.366;11.298;2022-08-19T04:01:39;30.80;;;25.58;;
57071;SDS011;42956;51.366;11.298;2022-08-19T04:04:08;29.17;;;24.38;;
57071;SDS011;42956;51.366;11.298;2022-08-19T04:06:38;29.42;;;26.27;;
57071;SDS011;42956;51.366;11.298;2022-08-19T04:09:07;28.90;;;25.15;;
57071;SDS011;42956;51.366;11.298;2022-08-19T04:11:36;29.27;;;24.80;;
57071;SDS011;42956;51.366;11.298;2022-08-19T04:14:10;30.35;;;25.38;;
57071;SDS011;42956;51.366;11.298;2022-08-19T04:16:38;31.55;;;25.27;;
57071;SDS011;42956;51.366;11.298;2022-08-19T04:19:06;33.22;;;25.45;;
57071;SDS011;42956;51.366;11.298;2022-08-19T04:21:35;32.83;;;23.52;;
57071;SDS011;42956;51.366;11.298;2022-08-19T04:24:04;31.02;;;23.63;;
57071;SDS011;42956;51.366;11.298;2022-08-19T04:26:34;30.90;;;25.50;;
57071;SDS011;42956;51.366;11.298;2022-08-19T04:29:05;30.02;;;22.65;;
57071;SDS011;42956;51.366;11.298;2022-08-19T04:31:38;28.65;;;23.95;;
57071;SDS011;42956;51.366;11.298;2022-08-19T04:34:08;28.40;;;23.52;;
57071;SDS011;42956;51.366;11.298;2022-08-19T04:36:39;26.00;;;22.60;;
57071;SDS011;42956;51.366;11.298;2022-08-19T04:39:10;27.38;;;23.90;;
57071;SDS011;42956;51.366;11.298;2022-08-19T04:41:38;30.05;;;24.40;;
57071;SDS011;42956;51.366;11.298;2022-08-19T04:44:24;28.65;;;23.83;;
57071;SDS011;42956;51.366;11.298;2022-08-19T04:46:52;29.20;;;25.42;;
57071;SDS011;42956;51.366;11.298;2022-08-19T04:49:20;27.42;;;24.17;;
57071;SDS011;42956;51.366;11.298;2022-08-19T04:51:50;33.55;;;25.58;;
57071;SDS011;42956;51.366;11.298;2022-08-19T04:54:20;32.47;;;24.92;;
57071;SDS011;42956;51.366;11.298;2022-08-19T04:57:05;32.33;;;24.00;;
57071;SDS011;42956;51.366;11.298;2022-08-19T04:59:33;29.85;;;24.55;;
57071;SDS011;42956;51.366;11.298;2022-08-19T05:02:02;27.95;;;24.30;;
57071;SDS011;42956;51.366;11.298;2022-08-19T05:04:30;27.90;;;23.67;;
57071;SDS011;42956;51.366;11.298;2022-08-19T05:07:00;30.08;;;23.75;;
57071;SDS011;42956;51.366;11.298;2022-08-19T05:09:29;29.60;;;23.73;;
57071;SDS011;42956;51.366;11.298;2022-08-19T05:12:18;33.15;;;24.02;;
57071;SDS011;42956;51.366;11.298;2022-08-19T05:14:46;26.70;;;23.70;;
57071;SDS011;42956;51.366;11.298;2022-08-19T05:17:14;29.00;;;24.10;;
57071;SDS011;42956;51.366;11.298;2022-08-19T05:19:53;33.40;;;24.25;;
57071;SDS011;42956;51.366;11.298;2022-08-19T05:22:39;35.10;;;25.02;;
57071;SDS011;42956;51.366;11.298;2022-08-19T05:25:10;29.10;;;24.48;;
57071;SDS011;42956;51.366;11.298;2022-08-19T05:27:40;26.73;;;22.85;;
57071;SDS011;42956;51.366;11.298;2022-08-19T05:30:08;27.52;;;24.15;;
57071;SDS011;42956;51.366;11.298;2022-08-19T05:32:36;29.13;;;24.73;;
57071;SDS011;42956;51.366;11.298;2022-08-19T05:35:05;27.48;;;24.55;;
57071;SDS011;42956;51.366;11.298;2022-08-19T05:37:33;34.22;;;26.02;;
57071;SDS011;42956;51.366;11.298;2022-08-19T05:40:02;28.30;;;23.45;;
57071;SDS011;42956;51.366;11.298;2022-08-19T05:42:31;33.42;;;25.25;;
57071;SDS011;42956;51.366;11.298;2022-08-19T05:44:59;30.13;;;24.80;;
57071;SDS011;42956;51.366;11.298;2022-08-19T05:47:27;28.75;;;24.95;;
57071;SDS011;42956;51.366;11.298;2022-08-19T05:49:55;31.23;;;24.42;;
57071;SDS011;42956;51.366;11.298;2022-08-19T05:52:23;29.52;;;25.30;;
57071;SDS011;42956;51.366;11.298;2022-08-19T05:54:52;31.77;;;24.73;;
57071;SDS011;42956;51.366;11.298;2022-08-19T05:57:22;31.17;;;24.65;;
57071;SDS011;42956;51.366;11.298;2022-08-19T05:59:52;29.55;;;24.30;;
57071;SDS011;42956;51.366;11.298;2022-08-19T06:02:24;28.25;;;21.90;;
57071;SDS011;42956;51.366;11.298;2022-08-19T06:04:52;30.75;;;23.75;;
57071;SDS011;42956;51.366;11.298;2022-08-19T06:07:20;29.92;;;23.13;;
57071;SDS011;42956;51.366;11.298;2022-08-19T06:09:48;29.42;;;23.73;;
57071;SDS011;42956;51.366;11.298;2022-08-19T06:12:26;29.77;;;23.35;;
57071;SDS011;42956;51.366;11.298;2022-08-19T06:14:58;27.30;;;23.80;;
57071;SDS011;42956;51.366;11.298;2022-08-19T06:17:28;25.80;;;21.88;;
57071;SDS011;42956;51.366;11.298;2022-08-19T06:19:57;24.10;;;21.45;;
57071;SDS011;42956;51.366;11.298;2022-08-19T06:22:26;23.65;;;20.90;;
57071;SDS011;42956;51.366;11.298;2022-08-19T06:24:54;26.25;;;21.15;;
57071;SDS011;42956;51.366;11.298;2022-08-19T06:27:22;26.63;;;20.85;;
57071;SDS011;42956;51.366;11.298;2022-08-19T06:29:50;25.48;;;19.77;;
57071;SDS011;42956;51.366;11.298;2022-08-19T06:32:19;26.65;;;19.30;;
57071;SDS011;42956;51.366;11.298;2022-08-19T06:34:47;21.30;;;17.60;;
57071;SDS011;42956;51.366;11.298;2022-08-19T06:37:15;27.48;;;18.42;;
57071;SDS011;42956;51.366;11.298;2022-08-19T06:39:43;20.83;;;16.52;;
57071;SDS011;42956;51.366;11.298;2022-08-19T06:42:12;21.38;;;15.93;;
57071;SDS011;42956;51.366;11.298;2022-08-19T06:44:44;28.77;;;16.70;;
57071;SDS011;42956;51.366;11.298;2022-08-19T06:47:15;23.75;;;16.30;;
57071;SDS011;42956;51.366;11.298;2022-08-19T06:49:54;20.60;;;15.85;;
57071;SDS011;42956;51.366;11.298;2022-08-19T06:52:28;20.98;;;14.15;;
57071;SDS011;42956;51.366;11.298;2022-08-19T06:55:00;16.42;;;12.82;;
57071;SDS011;42956;51.366;11.298;2022-08-19T06:57:32;15.63;;;12.85;;
57071;SDS011;42956;51.366;11.298;2022-08-19T07:00:01;15.52;;;11.68;;
57071;SDS011;42956;51.366;11.298;2022-08-19T07:02:29;17.52;;;13.77;;
57071;SDS011;42956;51.366;11.298;2022-08-19T07:04:58;15.57;;;11.90;;
57071;SDS011;42956;51.366;11.298;2022-08-19T07:07:32;19.00;;;13.45;;
57071;SDS011;42956;51.366;11.298;2022-08-19T07:10:02;17.23;;;12.23;;
57071;SDS011;42956;51.366;11.298;2022-08-19T07:12:33;20.43;;;12.90;;
57071;SDS011;42956;51.366;11.298;2022-08-19T07:15:04;17.92;;;11.30;;
57071;SDS011;42956;51.366;11.298;2022-08-19T07:17:32;16.88;;;11.38;;
57071;SDS011;42956;51.366;11.298;2022-08-19T07:20:03;13.02;;;11.55;;
57071;SDS011;42956;51.366;11.298;2022-08-19T07:22:35;17.92;;;11.88;;
57071;SDS011;42956;51.366;11.298;2022-08-19T07:25:03;18.45;;;11.45;;
57071;SDS011;42956;51.366;11.298;2022-08-19T07:27:31;13.27;;;10.93;;
57071;SDS011;42956;51.366;11.298;2022-08-19T07:30:00;13.98;;;11.18;;
57071;SDS011;42956;51.366;11.298;2022-08-19T07:32:28;13.05;;;11.35;;
57071;SDS011;42956;51.366;11.298;2022-08-19T07:34:58;14.90;;;10.80;;
57071;SDS011;42956;51.366;11.298;2022-08-19T07:37:28;17.38;;;12.18;;
57071;SDS011;42956;51.366;11.298;2022-08-19T07:39:59;14.38;;;11.80;;
57071;SDS011;42956;51.366;11.298;2022-08-19T07:42:27;15.55;;;11.10;;
57071;SDS011;42956;51.366;11.298;2022-08-19T07:44:56;17.42;;;12.13;;
57071;SDS011;42956;51.366;11.298;2022-08-19T07:47:24;19.40;;;12.38;;
57071;SDS011;42956;51.366;11.298;2022-08-19T07:50:12;16.80;;;12.35;;
57071;SDS011;42956;51.366;11.298;2022-08-19T07:52:42;16.95;;;12.13;;
57071;SDS011;42956;51.366;11.298;2022-08-19T07:55:14;16.83;;;10.93;;
57071;SDS011;42956;51.366;11.298;2022-08-19T07:58:04;20.20;;;11.93;;
57071;SDS011;42956;51.366;11.298;2022-08-19T08:00:35;16.05;;;11.20;;
57071;SDS011;42956;51.366;11.298;2022-08-19T08:03:03;16.92;;;10.88;;
57071;SDS011;42956;51.366;11.298;2022-08-19T08:05:35;15.30;;;12.93;;
57071;SDS011;42956;51.366;11.298;2022-08-19T08:08:22;20.00;;;12.57;;
57071;SDS011;42956;51.366;11.298;2022-08-19T08:11:10;14.30;;;10.98;;
57071;SDS011;42956;51.366;11.298;2022-08-19T08:13:41;14.05;;;9.30;;
57071;SDS011;42956;51.366;11.298;2022-08-19T08:16:12;13.00;;;8.77;;
57071;SDS011;42956;51.366;11.298;2022-08-19T08:18:40;16.20;;;8.20;;
57071;SDS011;42956;51.366;11.298;2022-08-19T08:21:16;11.80;;;7.70;;
57071;SDS011;42956;51.366;11.298;2022-08-19T08:23:45;10.07;;;6.93;;
57071;SDS011;42956;51.366;11.298;2022-08-19T08:26:14;6.75;;;5.78;;
57071;SDS011;42956;51.366;11.298;2022-08-19T08:28:44;12.00;;;7.13;;
57071;SDS011;42956;51.366;11.298;2022-08-19T08:31:15;7.05;;;6.22;;
57071;SDS011;42956;51.366;11.298;2022-08-19T08:33:45;6.30;;;4.70;;
57071;SDS011;42956;51.366;11.298;2022-08-19T08:36:13;10.77;;;5.05;;
57071;SDS011;42956;51.366;11.298;2022-08-19T08:38:42;7.05;;;5.43;;
57071;SDS011;42956;51.366;11.298;2022-08-19T08:41:17;8.25;;;4.88;;
57071;SDS011;42956;51.366;11.298;2022-08-19T08:43:47;10.32;;;5.70;;
57071;SDS011;42956;51.366;11.298;2022-08-19T08:46:17;8.18;;;6.07;;
57071;SDS011;42956;51.366;11.298;2022-08-19T08:49:00;8.25;;;5.22;;
57071;SDS011;42956;51.366;11.298;2022-08-19T08:51:32;6.65;;;5.95;;
57071;SDS011;42956;51.366;11.298;2022-08-19T08:54:01;8.80;;;6.28;;
57071;SDS011;42956;51.366;11.298;2022-08-19T08:56:31;11.55;;;6.53;;
57071;SDS011;42956;51.366;11.298;2022-08-19T08:59:01;8.40;;;6.00;;
57071;SDS011;42956;51.366;11.298;2022-08-19T09:01:30;8.70;;;6.07;;
57071;SDS011;42956;51.366;11.298;2022-08-19T09:03:58;8.48;;;6.10;;
57071;SDS011;42956;51.366;11.298;2022-08-19T09:06:29;6.80;;;4.75;;
57071;SDS011;42956;51.366;11.298;2022-08-19T09:09:01;6.05;;;5.45;;
57071;SDS011;42956;51.366;11.298;2022-08-19T09:11:47;9.07;;;5.68;;
57071;SDS011;42956;51.366;11.298;2022-08-19T09:14:32;5.18;;;4.57;;
57071;SDS011;42956;51.366;11.298;2022-08-19T09:17:19;9.07;;;6.10;;
57071;SDS011;42956;51.366;11.298;2022-08-19T09:19:52;7.95;;;5.50;;
57071;SDS011;42956;51.366;11.298;2022-08-19T09:22:21;7.78;;;5.78;;
57071;SDS011;42956;51.366;11.298;2022-08-19T09:24:53;8.07;;;6.00;;
57071;SDS011;42956;51.366;11.298;2022-08-19T09:27:23;8.07;;;5.90;;
57071;SDS011;42956;51.366;11.298;2022-08-19T09:30:13;7.97;;;6.15;;
57071;SDS011;42956;51.366;11.298;2022-08-19T09:32:42;12.50;;;7.05;;
57071;SDS011;42956;51.366;11.298;2022-08-19T09:35:10;8.25;;;6.43;;
57071;SDS011;42956;51.366;11.298;2022-08-19T09:44:04;8.52;;;7.63;;
57071;SDS011;42956;51.366;11.298;2022-08-19T09:46:35;9.68;;;7.97;;
57071;SDS011;42956;51.366;11.298;2022-08-19T09:49:04;7.63;;;6.90;;
57071;SDS011;42956;51.366;11.298;2022-08-19T09:51:32;8.27;;;7.45;;
57071;SDS011;42956;51.366;11.298;2022-08-19T09:54:01;6.63;;;6.03;;
57071;SDS011;42956;51.366;11.298;2022-08-19T09:56:31;10.68;;;5.93;;
57071;SDS011;42956;51.366;11.298;2022-08-19T09:58:59;7.75;;;6.78;;
57071;SDS011;42956;51.366;11.298;2022-08-19T10:01:30;10.73;;;6.97;;
57071;SDS011;42956;51.366;11.298;2022-08-19T10:03:59;6.22;;;5.63;;
57071;SDS011;42956;51.366;11.298;2022-08-19T10:06:33;6.63;;;5.75;;
57071;SDS011;42956;51.366;11.298;2022-08-19T10:09:12;8.88;;;5.47;;
57071;SDS011;42956;51.366;11.298;2022-08-19T10:11:40;6.30;;;4.93;;
57071;SDS011;42956;51.366;11.298;2022-08-19T10:14:19;7.18;;;6.20;;
57071;SDS011;42956;51.366;11.298;2022-08-19T10:16:50;5.38;;;4.13;;
57071;SDS011;42956;51.366;11.298;2022-08-19T10:19:18;5.60;;;4.40;;
57071;SDS011;42956;51.366;11.298;2022-08-19T10:24:19;5.20;;;3.90;;
57071;SDS011;42956;51.366;11.298;2022-08-19T10:26:50;5.50;;;4.25;;
57071;SDS011;42956;51.366;11.298;2022-08-19T10:29:25;6.60;;;5.15;;
57071;SDS011;42956;51.366;11.298;2022-08-19T10:32:00;4.72;;;4.32;;
57071;SDS011;42956;51.366;11.298;2022-08-19T10:34:29;6.20;;;4.88;;
57071;SDS011;42956;51.366;11.298;2022-08-19T10:36:57;8.77;;;5.55;;
57071;SDS011;42956;51.366;11.298;2022-08-19T10:39:28;5.53;;;5.03;;
57071;SDS011;42956;51.366;11.298;2022-08-19T10:42:03;5.13;;;4.63;;
57071;SDS011;42956;51.366;11.298;2022-08-19T10:44:31;7.65;;;6.47;;
57071;SDS011;42956;51.366;11.298;2022-08-19T10:47:01;6.50;;;5.82;;
57071;SDS011;42956;51.366;11.298;2022-08-19T10:49:48;6.57;;;4.93;;
57071;SDS011;42956;51.366;11.298;2022-08-19T10:52:37;6.00;;;5.40;;
57071;SDS011;42956;51.366;11.298;2022-08-19T10:55:15;6.07;;;5.47;;
57071;SDS011;42956;51.366;11.298;2022-08-19T10:58:00;8.60;;;5.82;;
57071;SDS011;42956;51.366;11.298;2022-08-19T11:00:28;7.35;;;6.53;;
57071;SDS011;42956;51.366;11.298;2022-08-19T11:02:58;9.45;;;5.57;;
57071;SDS011;42956;51.366;11.298;2022-08-19T11:05:26;6.57;;;5.28;;
57071;SDS011;42956;51.366;11.298;2022-08-19T11:08:02;5.57;;;4.80;;
57071;SDS011;42956;51.366;11.298;2022-08-19T11:10:48;7.40;;;4.00;;
57071;SDS011;42956;51.366;11.298;2022-08-19T11:13:16;3.53;;;3.22;;
57071;SDS011;42956;51.366;11.298;2022-08-19T11:15:44;3.78;;;3.47;;
57071;SDS011;42956;51.366;11.298;2022-08-19T11:18:13;5.25;;;3.08;;
57071;SDS011;42956;51.366;11.298;2022-08-19T11:20:43;3.28;;;2.97;;
57071;SDS011;42956;51.366;11.298;2022-08-19T11:23:11;3.85;;;2.80;;
57071;SDS011;42956;51.366;11.298;2022-08-19T11:25:39;3.20;;;2.88;;
57071;SDS011;42956;51.366;11.298;2022-08-19T11:28:06;2.83;;;2.63;;
57071;SDS011;42956;51.366;11.298;2022-08-19T11:30:34;2.45;;;2.20;;
57071;SDS011;42956;51.366;11.298;2022-08-19T11:33:04;5.43;;;2.63;;
57071;SDS011;42956;51.366;11.298;2022-08-19T11:35:33;3.25;;;2.95;;
57071;SDS011;42956;51.366;11.298;2022-08-19T11:38:01;2.97;;;2.65;;
57071;SDS011;42956;51.366;11.298;2022-08-19T11:40:33;3.42;;;2.95;;
57071;SDS011;42956;51.366;11.298;2022-08-19T11:43:01;5.03;;;2.78;;
57071;SDS011;42956;51.366;11.298;2022-08-19T11:45:29;2.88;;;2.47;;
57071;SDS011;42956;51.366;11.298;2022-08-19T11:47:57;3.55;;;2.55;;
57071;SDS011;42956;51.366;11.298;2022-08-19T11:50:25;2.88;;;2.35;;
57071;SDS011;42956;51.366;11.298;2022-08-19T11:52:55;2.95;;;2.55;;
57071;SDS011;42956;51.366;11.298;2022-08-19T11:55:23;3.88;;;2.88;;
57071;SDS011;42956;51.366;11.298;2022-08-19T11:57:51;5.30;;;2.72;;
57071;SDS011;42956;51.366;11.298;2022-08-19T12:00:19;2.75;;;2.45;;
57071;SDS011;42956;51.366;11.298;2022-08-19T12:02:48;4.78;;;2.60;;
57071;SDS011;42956;51.366;11.298;2022-08-19T12:05:16;2.75;;;2.55;;
57071;SDS011;42956;51.366;11.298;2022-08-19T12:07:44;3.08;;;2.78;;
57071;SDS011;42956;51.366;11.298;2022-08-19T12:10:13;2.45;;;2.22;;
57071;SDS011;42956;51.366;11.298;2022-08-19T12:12:45;2.30;;;2.10;;
57071;SDS011;42956;51.366;11.298;2022-08-19T12:15:24;5.82;;;3.65;;
57071;SDS011;42956;51.366;11.298;2022-08-19T12:18:03;2.80;;;2.60;;
57071;SDS011;42956;51.366;11.298;2022-08-19T12:20:32;6.93;;;2.42;;
57071;SDS011;42956;51.366;11.298;2022-08-19T12:23:02;3.95;;;2.22;;
57071;SDS011;42956;51.366;11.298;2022-08-19T12:25:31;3.38;;;2.30;;
57071;SDS011;42956;51.366;11.298;2022-08-19T12:27:59;2.85;;;2.65;;
57071;SDS011;42956;51.366;11.298;2022-08-19T12:30:29;4.57;;;3.45;;
57071;SDS011;42956;51.366;11.298;2022-08-19T12:32:57;3.17;;;2.88;;
57071;SDS011;42956;51.366;11.298;2022-08-19T12:35:25;6.15;;;2.45;;
57071;SDS011;42956;51.366;11.298;2022-08-19T12:37:53;3.88;;;2.55;;
57071;SDS011;42956;51.366;11.298;2022-08-19T12:40:23;2.97;;;2.75;;
57071;SDS011;42956;51.366;11.298;2022-08-19T12:42:53;5.15;;;2.70;;
57071;SDS011;42956;51.366;11.298;2022-08-19T12:45:21;4.38;;;2.85;;
57071;SDS011;42956;51.366;11.298;2022-08-19T12:47:50;3.53;;;2.55;;
57071;SDS011;42956;51.366;11.298;2022-08-19T12:50:20;2.75;;;2.55;;
57071;SDS011;42956;51.366;11.298;2022-08-19T12:52:48;4.68;;;2.92;;
57071;SDS011;42956;51.366;11.298;2022-08-19T12:55:16;8.18;;;3.58;;
57071;SDS011;42956;51.366;11.298;2022-08-19T12:57:45;4.40;;;3.28;;
57071;SDS011;42956;51.366;11.298;2022-08-19T13:00:18;5.35;;;3.58;;
57071;SDS011;42956;51.366;11.298;2022-08-19T13:02:48;4.40;;;2.80;;
57071;SDS011;42956;51.366;11.298;2022-08-19T13:05:19;5.30;;;3.75;;
57071;SDS011;42956;51.366;11.298;2022-08-19T13:07:49;4.13;;;3.60;;
57071;SDS011;42956;51.366;11.298;2022-08-19T13:10:18;3.97;;;3.53;;
57071;SDS011;42956;51.366;11.298;2022-08-19T13:12:47;4.85;;;4.15;;
57071;SDS011;42956;51.366;11.298;2022-08-19T13:15:17;4.70;;;3.70;;
57071;SDS011;42956;51.366;11.298;2022-08-19T13:17:50;4.82;;;4.25;;
57071;SDS011;42956;51.366;11.298;2022-08-19T13:20:19;6.38;;;4.53;;
57071;SDS011;42956;51.366;11.298;2022-08-19T13:22:47;8.00;;;4.22;;
57071;SDS011;42956;51.366;11.298;2022-08-19T13:25:15;5.68;;;4.97;;
57071;SDS011;42956;51.366;11.298;2022-08-19T13:27:46;5.25;;;4.72;;
57071;SDS011;42956;51.366;11.298;2022-08-19T13:30:14;8.40;;;5.22;;
57071;SDS011;42956;51.366;11.298;2022-08-19T13:33:02;8.10;;;4.85;;
57071;SDS011;42956;51.366;11.298;2022-08-19T13:35:43;6.53;;;4.70;;
57071;SDS011;42956;51.366;11.298;2022-08-19T13:38:12;8.73;;;5.47;;
57071;SDS011;42956;51.366;11.298;2022-08-19T13:40:40;7.20;;;5.57;;
57071;SDS011;42956;51.366;11.298;2022-08-19T13:43:08;6.57;;;4.78;;
57071;SDS011;42956;51.366;11.298;2022-08-19T13:45:49;5.88;;;5.22;;
57071;SDS011;42956;51.366;11.298;2022-08-19T13:48:18;9.43;;;4.65;;
57071;SDS011;42956;51.366;11.298;2022-08-19T13:50:46;9.05;;;5.93;;
57071;SDS011;42956;51.366;11.298;2022-08-19T13:53:16;8.77;;;6.35;;
57071;SDS011;42956;51.366;11.298;2022-08-19T13:55:44;6.78;;;5.30;;
57071;SDS011;42956;51.366;11.298;2022-08-19T13:58:13;8.30;;;5.22;;
57071;SDS011;42956;51.366;11.298;2022-08-19T14:00:42;6.72;;;5.45;;
57071;SDS011;42956;51.366;11.298;2022-08-19T14:03:10;9.15;;;5.97;;
57071;SDS011;42956;51.366;11.298;2022-08-19T14:05:39;9.23;;;6.40;;
57071;SDS011;42956;51.366;11.298;2022-08-19T14:08:07;6.32;;;5.57;;
57071;SDS011;42956;51.366;11.298;2022-08-19T14:10:35;7.13;;;6.15;;
57071;SDS011;42956;51.366;11.298;2022-08-19T14:13:04;10.65;;;5.97;;
57071;SDS011;42956;51.366;11.298;2022-08-19T14:15:31;12.80;;;5.68;;
57071;SDS011;42956;51.366;11.298;2022-08-19T14:17:59;11.13;;;5.38;;
57071;SDS011;42956;51.366;11.298;2022-08-19T14:20:27;8.23;;;4.80;;
57071;SDS011;42956;51.366;11.298;2022-08-19T14:22:56;9.77;;;6.35;;
57071;SDS011;42956;51.366;11.298;2022-08-19T14:25:26;11.93;;;5.97;;
57071;SDS011;42956;51.366;11.298;2022-08-19T14:27:55;6.72;;;5.53;;
57071;SDS011;42956;51.366;11.298;2022-08-19T14:30:24;7.13;;;5.13;;
57071;SDS011;42956;51.366;11.298;2022-08-19T14:32:54;6.55;;;4.55;;
57071;SDS011;42956;51.366;11.298;2022-08-19T14:35:22;8.93;;;4.75;;
57071;SDS011;42956;51.366;11.298;2022-08-19T14:37:50;7.10;;;4.95;;
57071;SDS011;42956;51.366;11.298;2022-08-19T14:40:22;6.05;;;4.10;;
57071;SDS011;42956;51.366;11.298;2022-08-19T14:42:52;9.38;;;5.53;;
57071;SDS011;42956;51.366;11.298;2022-08-19T14:45:22;8.13;;;4.80;;
57071;SDS011;42956;51.366;11.298;2022-08-19T14:47:50;7.70;;;6.15;;